sensor_id;sensor_type;location;lat;lon;timestamp;P1;durP1;ratioP1;P2;durP2;ratioP2
1128;SDS011;553;51.038;7.216;2023-03-01T00:01:17;12.18;;;7.45;;
1128;SDS011;553;51.038;7.216;2023-03-01T00:03:46;11.88;;;7.38;;
1128;SDS011;553;51.038;7.216;2023-03-01T00:06:13;14.10;;;8.95;;
1128;SDS011;553;51.038;7.216;2023-03-01T00:08:40;15.10;;;8.50;;
1128;SDS011;553;51.038;7.216;2023-03-01T00:11:08;13.45;;;6.22;;
1128;SDS011;553;51.038;7.216;2023-03-01T00:13:39;9.52;;;6.20;;
1128;SDS011;553;51.038;7.216;2023-03-01T00:16:07;9.05;;;6.32;;
1128;SDS011;553;51.038;7.216;2023-03-01T00:18:36;13.32;;;6.88;;
1128;SDS011;553;51.038;7.216;2023-03-01T00:21:03;9.63;;;6.50;;
1128;SDS011;553;51.038;7.216;2023-03-01T00:23:30;9.80;;;7.40;;
1128;SDS011;553;51.038;7.216;2023-03-01T00:25:59;10.65;;;6.50;;
1128;SDS011;553;51.038;7.216;2023-03-01T00:28:25;10.18;;;6.97;;
1128;SDS011;553;51.038;7.216;2023-03-01T00:30:52;9.40;;;6.40;;
1128;SDS011;553;51.038;7.216;2023-03-01T00:33:19;12.05;;;6.80;;
1128;SDS011;553;51.038;7.216;2023-03-01T00:35:46;11.20;;;7.00;;
1128;SDS011;553;51.038;7.216;2023-03-01T00:38:13;10.70;;;7.35;;
1128;SDS011;553;51.038;7.216;2023-03-01T00:40:40;10.68;;;6.80;;
1128;SDS011;553;51.038;7.216;2023-03-01T00:43:07;10.40;;;7.05;;
1128;SDS011;553;51.038;7.216;2023-03-01T00:45:35;9.27;;;7.00;;
1128;SDS011;553;51.038;7.216;2023-03-01T00:48:02;13.90;;;7.00;;
1128;SDS011;553;51.038;7.216;2023-03-01T00:50:29;9.75;;;6.35;;
1128;SDS011;553;51.038;7.216;2023-03-01T00:52:56;10.70;;;6.50;;
1128;SDS011;553;51.038;7.216;2023-03-01T00:55:22;9.73;;;6.53;;
1128;SDS011;553;51.038;7.216;2023-03-01T00:57:50;17.80;;;6.85;;
1128;SDS011;553;51.038;7.216;2023-03-01T01:00:17;10.32;;;7.03;;
1128;SDS011;553;51.038;7.216;2023-03-01T01:02:46;14.07;;;6.05;;
1128;SDS011;553;51.038;7.216;2023-03-01T01:05:13;11.13;;;6.82;;
1128;SDS011;553;51.038;7.216;2023-03-01T01:07:40;10.18;;;6.95;;
1128;SDS011;553;51.038;7.216;2023-03-01T01:10:07;12.80;;;6.90;;
1128;SDS011;553;51.038;7.216;2023-03-01T01:12:34;13.05;;;8.00;;
1128;SDS011;553;51.038;7.216;2023-03-01T01:15:01;12.27;;;7.22;;
1128;SDS011;553;51.038;7.216;2023-03-01T01:17:27;9.93;;;6.82;;
1128;SDS011;553;51.038;7.216;2023-03-01T01:19:54;10.63;;;7.10;;
1128;SDS011;553;51.038;7.216;2023-03-01T01:22:22;12.10;;;6.90;;
1128;SDS011;553;51.038;7.216;2023-03-01T01:24:48;13.40;;;6.90;;
1128;SDS011;553;51.038;7.216;2023-03-01T01:27:15;10.23;;;7.15;;
1128;SDS011;553;51.038;7.216;2023-03-01T01:29:42;13.45;;;7.95;;
1128;SDS011;553;51.038;7.216;2023-03-01T01:32:09;10.82;;;6.78;;
1128;SDS011;553;51.038;7.216;2023-03-01T01:34:36;12.70;;;7.40;;
1128;SDS011;553;51.038;7.216;2023-03-01T01:37:03;11.73;;;6.80;;
1128;SDS011;553;51.038;7.216;2023-03-01T01:39:34;10.82;;;7.22;;
1128;SDS011;553;51.038;7.216;2023-03-01T01:42:01;8.98;;;6.32;;
1128;SDS011;553;51.038;7.216;2023-03-01T01:44:28;11.32;;;6.63;;
1128;SDS011;553;51.038;7.216;2023-03-01T01:47:00;9.23;;;6.35;;
1128;SDS011;553;51.038;7.216;2023-03-01T01:49:38;14.88;;;8.23;;
1128;SDS011;553;51.038;7.216;2023-03-01T01:54:45;11.70;;;7.20;;
1128;SDS011;553;51.038;7.216;2023-03-01T01:57:20;14.35;;;7.85;;
1128;SDS011;553;51.038;7.216;2023-03-01T01:59:51;13.00;;;7.88;;
1128;SDS011;553;51.038;7.216;2023-03-01T02:02:20;11.98;;;8.05;;
1128;SDS011;553;51.038;7.216;2023-03-01T02:04:47;15.50;;;8.05;;
1128;SDS011;553;51.038;7.216;2023-03-01T02:07:22;16.00;;;8.95;;
1128;SDS011;553;51.038;7.216;2023-03-01T02:09:51;10.55;;;7.47;;
1128;SDS011;553;51.038;7.216;2023-03-01T02:12:20;14.20;;;8.70;;
1128;SDS011;553;51.038;7.216;2023-03-01T02:14:49;11.15;;;7.93;;
1128;SDS011;553;51.038;7.216;2023-03-01T02:17:16;12.70;;;7.55;;
1128;SDS011;553;51.038;7.216;2023-03-01T02:19:53;13.13;;;7.43;;
1128;SDS011;553;51.038;7.216;2023-03-01T02:22:42;11.73;;;8.00;;
1128;SDS011;553;51.038;7.216;2023-03-01T02:27:52;13.63;;;7.88;;
1128;SDS011;553;51.038;7.216;2023-03-01T02:30:38;11.23;;;8.05;;
1128;SDS011;553;51.038;7.216;2023-03-01T02:33:26;14.63;;;7.55;;
1128;SDS011;553;51.038;7.216;2023-03-01T02:35:53;13.07;;;8.02;;
1128;SDS011;553;51.038;7.216;2023-03-01T02:38:21;11.07;;;7.63;;
1128;SDS011;553;51.038;7.216;2023-03-01T02:40:50;11.75;;;7.40;;
1128;SDS011;553;51.038;7.216;2023-03-01T02:43:18;15.18;;;8.98;;
1128;SDS011;553;51.038;7.216;2023-03-01T02:45:52;13.80;;;8.13;;
1128;SDS011;553;51.038;7.216;2023-03-01T02:48:19;11.05;;;8.00;;
1128;SDS011;553;51.038;7.216;2023-03-01T02:53:48;12.75;;;7.47;;
1128;SDS011;553;51.038;7.216;2023-03-01T02:56:36;12.25;;;8.82;;
1128;SDS011;553;51.038;7.216;2023-03-01T02:59:04;12.70;;;7.72;;
1128;SDS011;553;51.038;7.216;2023-03-01T03:01:31;12.20;;;7.45;;
1128;SDS011;553;51.038;7.216;2023-03-01T03:04:06;12.13;;;7.85;;
1128;SDS011;553;51.038;7.216;2023-03-01T03:06:36;12.25;;;8.45;;
1128;SDS011;553;51.038;7.216;2023-03-01T03:09:04;12.38;;;8.60;;
1128;SDS011;553;51.038;7.216;2023-03-01T03:11:31;10.95;;;8.75;;
1128;SDS011;553;51.038;7.216;2023-03-01T03:13:59;15.00;;;8.48;;
1128;SDS011;553;51.038;7.216;2023-03-01T03:16:26;11.27;;;8.13;;
1128;SDS011;553;51.038;7.216;2023-03-01T03:18:53;12.52;;;7.85;;
1128;SDS011;553;51.038;7.216;2023-03-01T03:21:19;17.33;;;8.40;;
1128;SDS011;553;51.038;7.216;2023-03-01T03:23:46;13.93;;;9.15;;
1128;SDS011;553;51.038;7.216;2023-03-01T03:26:12;15.98;;;8.57;;
1128;SDS011;553;51.038;7.216;2023-03-01T03:28:41;13.15;;;8.80;;
1128;SDS011;553;51.038;7.216;2023-03-01T03:31:08;11.65;;;9.10;;
1128;SDS011;553;51.038;7.216;2023-03-01T03:33:34;17.77;;;8.45;;
1128;SDS011;553;51.038;7.216;2023-03-01T03:36:01;17.15;;;8.75;;
1128;SDS011;553;51.038;7.216;2023-03-01T03:38:28;11.90;;;8.45;;
1128;SDS011;553;51.038;7.216;2023-03-01T03:41:00;12.98;;;8.27;;
1128;SDS011;553;51.038;7.216;2023-03-01T03:43:30;14.77;;;8.93;;
1128;SDS011;553;51.038;7.216;2023-03-01T03:45:58;13.40;;;9.60;;
1128;SDS011;553;51.038;7.216;2023-03-01T03:48:25;17.95;;;10.68;;
1128;SDS011;553;51.038;7.216;2023-03-01T03:50:53;19.67;;;9.45;;
1128;SDS011;553;51.038;7.216;2023-03-01T03:53:23;11.95;;;8.00;;
1128;SDS011;553;51.038;7.216;2023-03-01T03:55:51;13.90;;;8.43;;
1128;SDS011;553;51.038;7.216;2023-03-01T03:58:19;16.75;;;9.07;;
1128;SDS011;553;51.038;7.216;2023-03-01T04:00:48;15.02;;;9.57;;
1128;SDS011;553;51.038;7.216;2023-03-01T04:03:18;13.45;;;8.77;;
1128;SDS011;553;51.038;7.216;2023-03-01T04:05:46;15.43;;;9.45;;
1128;SDS011;553;51.038;7.216;2023-03-01T04:08:14;14.85;;;8.93;;
1128;SDS011;553;51.038;7.216;2023-03-01T04:10:41;16.67;;;9.88;;
1128;SDS011;553;51.038;7.216;2023-03-01T04:13:11;15.45;;;9.32;;
1128;SDS011;553;51.038;7.216;2023-03-01T04:15:39;16.65;;;9.60;;
1128;SDS011;553;51.038;7.216;2023-03-01T04:18:06;15.68;;;9.40;;
1128;SDS011;553;51.038;7.216;2023-03-01T04:20:35;14.95;;;9.45;;
1128;SDS011;553;51.038;7.216;2023-03-01T04:23:03;16.10;;;10.05;;
1128;SDS011;553;51.038;7.216;2023-03-01T04:25:45;22.10;;;10.00;;
1128;SDS011;553;51.038;7.216;2023-03-01T04:28:39;18.95;;;10.38;;
1128;SDS011;553;51.038;7.216;2023-03-01T04:31:10;19.10;;;10.60;;
1128;SDS011;553;51.038;7.216;2023-03-01T04:33:46;15.48;;;9.85;;
1128;SDS011;553;51.038;7.216;2023-03-01T04:36:18;14.65;;;10.43;;
1128;SDS011;553;51.038;7.216;2023-03-01T04:38:46;17.35;;;10.48;;
1128;SDS011;553;51.038;7.216;2023-03-01T04:41:14;16.63;;;10.98;;
1128;SDS011;553;51.038;7.216;2023-03-01T04:43:42;18.50;;;9.55;;
1128;SDS011;553;51.038;7.216;2023-03-01T04:46:13;14.63;;;9.10;;
1128;SDS011;553;51.038;7.216;2023-03-01T04:48:42;18.23;;;9.02;;
1128;SDS011;553;51.038;7.216;2023-03-01T04:51:11;17.63;;;9.02;;
1128;SDS011;553;51.038;7.216;2023-03-01T04:53:41;15.70;;;9.98;;
1128;SDS011;553;51.038;7.216;2023-03-01T04:56:09;17.42;;;9.65;;
1128;SDS011;553;51.038;7.216;2023-03-01T04:58:36;14.63;;;8.55;;
1128;SDS011;553;51.038;7.216;2023-03-01T05:01:08;12.18;;;6.85;;
1128;SDS011;553;51.038;7.216;2023-03-01T05:03:42;17.77;;;10.18;;
1128;SDS011;553;51.038;7.216;2023-03-01T05:06:10;16.80;;;9.30;;
1128;SDS011;553;51.038;7.216;2023-03-01T05:08:37;15.02;;;9.40;;
1128;SDS011;553;51.038;7.216;2023-03-01T05:11:05;19.02;;;9.82;;
1128;SDS011;553;51.038;7.216;2023-03-01T05:13:32;16.40;;;10.63;;
1128;SDS011;553;51.038;7.216;2023-03-01T05:15:59;16.15;;;11.02;;
1128;SDS011;553;51.038;7.216;2023-03-01T05:18:27;16.23;;;9.80;;
1128;SDS011;553;51.038;7.216;2023-03-01T05:21:01;15.68;;;9.55;;
1128;SDS011;553;51.038;7.216;2023-03-01T05:23:33;17.27;;;10.65;;
1128;SDS011;553;51.038;7.216;2023-03-01T05:26:01;16.45;;;9.80;;
1128;SDS011;553;51.038;7.216;2023-03-01T05:28:31;15.38;;;10.43;;
1128;SDS011;553;51.038;7.216;2023-03-01T05:30:58;16.15;;;10.45;;
1128;SDS011;553;51.038;7.216;2023-03-01T05:33:25;17.38;;;10.45;;
1128;SDS011;553;51.038;7.216;2023-03-01T05:35:53;19.50;;;10.88;;
1128;SDS011;553;51.038;7.216;2023-03-01T05:38:20;15.93;;;10.30;;
1128;SDS011;553;51.038;7.216;2023-03-01T05:40:48;19.40;;;11.38;;
1128;SDS011;553;51.038;7.216;2023-03-01T05:43:15;16.42;;;8.70;;
1128;SDS011;553;51.038;7.216;2023-03-01T05:45:43;14.80;;;9.90;;
1128;SDS011;553;51.038;7.216;2023-03-01T05:48:11;16.92;;;10.07;;
1128;SDS011;553;51.038;7.216;2023-03-01T05:50:42;19.45;;;10.75;;
1128;SDS011;553;51.038;7.216;2023-03-01T05:53:17;22.77;;;11.38;;
1128;SDS011;553;51.038;7.216;2023-03-01T05:55:47;22.48;;;9.80;;
1128;SDS011;553;51.038;7.216;2023-03-01T05:58:15;18.85;;;11.10;;
1128;SDS011;553;51.038;7.216;2023-03-01T06:00:43;16.40;;;10.77;;
1128;SDS011;553;51.038;7.216;2023-03-01T06:03:12;15.50;;;10.75;;
1128;SDS011;553;51.038;7.216;2023-03-01T06:05:41;18.58;;;11.15;;
1128;SDS011;553;51.038;7.216;2023-03-01T06:08:08;18.33;;;10.48;;
1128;SDS011;553;51.038;7.216;2023-03-01T06:10:36;20.05;;;10.75;;
1128;SDS011;553;51.038;7.216;2023-03-01T06:13:03;21.50;;;12.32;;
1128;SDS011;553;51.038;7.216;2023-03-01T06:15:31;21.58;;;11.70;;
1128;SDS011;553;51.038;7.216;2023-03-01T06:17:58;18.63;;;11.48;;
1128;SDS011;553;51.038;7.216;2023-03-01T06:20:26;21.00;;;12.52;;
1128;SDS011;553;51.038;7.216;2023-03-01T06:22:54;19.90;;;12.13;;
1128;SDS011;553;51.038;7.216;2023-03-01T06:25:21;18.92;;;11.55;;
1128;SDS011;553;51.038;7.216;2023-03-01T06:27:50;19.75;;;11.25;;
1128;SDS011;553;51.038;7.216;2023-03-01T06:30:19;15.85;;;10.85;;
1128;SDS011;553;51.038;7.216;2023-03-01T06:32:47;16.60;;;11.27;;
1128;SDS011;553;51.038;7.216;2023-03-01T06:35:15;20.38;;;12.50;;
1128;SDS011;553;51.038;7.216;2023-03-01T06:37:46;19.83;;;10.93;;
1128;SDS011;553;51.038;7.216;2023-03-01T06:40:14;19.02;;;10.50;;
1128;SDS011;553;51.038;7.216;2023-03-01T06:42:41;17.30;;;10.65;;
1128;SDS011;553;51.038;7.216;2023-03-01T06:45:10;18.88;;;11.07;;
1128;SDS011;553;51.038;7.216;2023-03-01T06:47:38;20.85;;;11.45;;
1128;SDS011;553;51.038;7.216;2023-03-01T06:50:04;19.77;;;12.35;;
1128;SDS011;553;51.038;7.216;2023-03-01T06:52:32;19.23;;;11.00;;
1128;SDS011;553;51.038;7.216;2023-03-01T06:54:59;19.40;;;11.55;;
1128;SDS011;553;51.038;7.216;2023-03-01T06:57:26;16.20;;;10.77;;
1128;SDS011;553;51.038;7.216;2023-03-01T06:59:53;22.10;;;12.23;;
1128;SDS011;553;51.038;7.216;2023-03-01T07:02:19;17.60;;;11.50;;
1128;SDS011;553;51.038;7.216;2023-03-01T07:04:47;18.80;;;11.75;;
1128;SDS011;553;51.038;7.216;2023-03-01T07:07:15;17.38;;;12.02;;
1128;SDS011;553;51.038;7.216;2023-03-01T07:09:44;19.80;;;9.70;;
1128;SDS011;553;51.038;7.216;2023-03-01T07:12:11;19.38;;;12.30;;
1128;SDS011;553;51.038;7.216;2023-03-01T07:14:38;20.55;;;11.35;;
1128;SDS011;553;51.038;7.216;2023-03-01T07:17:05;19.70;;;11.90;;
1128;SDS011;553;51.038;7.216;2023-03-01T07:19:31;18.58;;;11.30;;
1128;SDS011;553;51.038;7.216;2023-03-01T07:21:58;18.63;;;11.43;;
1128;SDS011;553;51.038;7.216;2023-03-01T07:24:25;20.58;;;11.85;;
1128;SDS011;553;51.038;7.216;2023-03-01T07:26:51;28.17;;;13.48;;
1128;SDS011;553;51.038;7.216;2023-03-01T07:29:19;20.15;;;12.50;;
1128;SDS011;553;51.038;7.216;2023-03-01T07:31:46;20.95;;;11.93;;
1128;SDS011;553;51.038;7.216;2023-03-01T07:34:13;18.10;;;11.73;;
1128;SDS011;553;51.038;7.216;2023-03-01T07:36:40;20.20;;;11.80;;
1128;SDS011;553;51.038;7.216;2023-03-01T07:39:11;20.65;;;13.27;;
1128;SDS011;553;51.038;7.216;2023-03-01T07:41:38;19.55;;;11.70;;
1128;SDS011;553;51.038;7.216;2023-03-01T07:44:05;20.92;;;12.20;;
1128;SDS011;553;51.038;7.216;2023-03-01T07:46:32;19.48;;;12.27;;
1128;SDS011;553;51.038;7.216;2023-03-01T07:48:59;23.25;;;11.60;;
1128;SDS011;553;51.038;7.216;2023-03-01T07:51:25;17.20;;;11.23;;
1128;SDS011;553;51.038;7.216;2023-03-01T07:53:52;23.55;;;13.30;;
1128;SDS011;553;51.038;7.216;2023-03-01T07:56:19;19.23;;;12.18;;
1128;SDS011;553;51.038;7.216;2023-03-01T07:58:48;18.10;;;12.45;;
1128;SDS011;553;51.038;7.216;2023-03-01T08:01:17;18.20;;;11.40;;
1128;SDS011;553;51.038;7.216;2023-03-01T08:03:45;20.75;;;12.30;;
1128;SDS011;553;51.038;7.216;2023-03-01T08:06:13;18.45;;;11.35;;
1128;SDS011;553;51.038;7.216;2023-03-01T08:08:41;20.35;;;12.07;;
1128;SDS011;553;51.038;7.216;2023-03-01T08:11:10;19.33;;;11.32;;
1128;SDS011;553;51.038;7.216;2023-03-01T08:13:38;18.02;;;11.18;;
1128;SDS011;553;51.038;7.216;2023-03-01T08:16:10;21.75;;;12.20;;
1128;SDS011;553;51.038;7.216;2023-03-01T08:18:38;22.65;;;13.50;;
1128;SDS011;553;51.038;7.216;2023-03-01T08:21:09;17.10;;;11.90;;
1128;SDS011;553;51.038;7.216;2023-03-01T08:23:38;20.02;;;12.63;;
1128;SDS011;553;51.038;7.216;2023-03-01T08:26:13;17.88;;;11.40;;
1128;SDS011;553;51.038;7.216;2023-03-01T08:28:41;22.35;;;11.82;;
1128;SDS011;553;51.038;7.216;2023-03-01T08:33:50;18.48;;;11.18;;
1128;SDS011;553;51.038;7.216;2023-03-01T08:36:25;19.58;;;12.70;;
1128;SDS011;553;51.038;7.216;2023-03-01T08:38:54;15.80;;;10.30;;
1128;SDS011;553;51.038;7.216;2023-03-01T08:41:21;17.60;;;10.02;;
1128;SDS011;553;51.038;7.216;2023-03-01T08:43:48;21.88;;;11.43;;
1128;SDS011;553;51.038;7.216;2023-03-01T08:46:15;13.70;;;9.43;;
1128;SDS011;553;51.038;7.216;2023-03-01T08:48:42;15.93;;;9.23;;
1128;SDS011;553;51.038;7.216;2023-03-01T08:53:41;18.30;;;11.00;;
1128;SDS011;553;51.038;7.216;2023-03-01T08:56:08;12.83;;;9.43;;
1128;SDS011;553;51.038;7.216;2023-03-01T08:58:35;15.70;;;10.70;;
1128;SDS011;553;51.038;7.216;2023-03-01T09:01:09;16.87;;;11.10;;
1128;SDS011;553;51.038;7.216;2023-03-01T09:03:37;16.17;;;9.50;;
1128;SDS011;553;51.038;7.216;2023-03-01T09:06:05;14.63;;;10.30;;
1128;SDS011;553;51.038;7.216;2023-03-01T09:08:37;15.73;;;10.33;;
1128;SDS011;553;51.038;7.216;2023-03-01T09:11:06;13.23;;;9.63;;
1128;SDS011;553;51.038;7.216;2023-03-01T09:13:34;15.47;;;10.90;;
1128;SDS011;553;51.038;7.216;2023-03-01T09:16:02;14.83;;;9.30;;
1128;SDS011;553;51.038;7.216;2023-03-01T09:18:31;18.90;;;11.70;;
1128;SDS011;553;51.038;7.216;2023-03-01T09:21:05;14.73;;;9.47;;
1128;SDS011;553;51.038;7.216;2023-03-01T09:23:40;16.77;;;11.27;;
1128;SDS011;553;51.038;7.216;2023-03-01T09:26:09;16.57;;;10.20;;
1128;SDS011;553;51.038;7.216;2023-03-01T09:28:38;14.63;;;10.50;;
1128;SDS011;553;51.038;7.216;2023-03-01T09:31:07;14.60;;;9.50;;
1128;SDS011;553;51.038;7.216;2023-03-01T09:33:34;14.30;;;10.17;;
1128;SDS011;553;51.038;7.216;2023-03-01T09:36:04;16.97;;;10.67;;
1128;SDS011;553;51.038;7.216;2023-03-01T09:38:33;14.70;;;10.17;;
1128;SDS011;553;51.038;7.216;2023-03-01T09:41:00;16.60;;;9.20;;
1128;SDS011;553;51.038;7.216;2023-03-01T09:43:47;17.83;;;10.00;;
1128;SDS011;553;51.038;7.216;2023-03-01T09:46:22;14.57;;;10.80;;
1128;SDS011;553;51.038;7.216;2023-03-01T09:51:31;14.37;;;9.60;;
1128;SDS011;553;51.038;7.216;2023-03-01T09:54:03;15.37;;;10.10;;
1128;SDS011;553;51.038;7.216;2023-03-01T09:56:51;12.20;;;9.30;;
1128;SDS011;553;51.038;7.216;2023-03-01T09:59:44;12.70;;;9.50;;
1128;SDS011;553;51.038;7.216;2023-03-01T10:02:33;13.43;;;9.50;;
1128;SDS011;553;51.038;7.216;2023-03-01T10:10:46;15.90;;;9.80;;
1128;SDS011;553;51.038;7.216;2023-03-01T10:13:29;16.53;;;9.97;;
1128;SDS011;553;51.038;7.216;2023-03-01T10:16:16;16.03;;;9.43;;
1128;SDS011;553;51.038;7.216;2023-03-01T10:18:51;14.83;;;8.20;;
1128;SDS011;553;51.038;7.216;2023-03-01T10:21:21;14.33;;;10.10;;
1128;SDS011;553;51.038;7.216;2023-03-01T10:23:49;13.27;;;8.80;;
1128;SDS011;553;51.038;7.216;2023-03-01T10:29:05;16.20;;;9.60;;
1128;SDS011;553;51.038;7.216;2023-03-01T10:31:38;13.70;;;9.30;;
1128;SDS011;553;51.038;7.216;2023-03-01T10:34:11;13.30;;;9.77;;
1128;SDS011;553;51.038;7.216;2023-03-01T10:36:56;11.50;;;9.17;;
1128;SDS011;553;51.038;7.216;2023-03-01T10:40:01;10.23;;;7.87;;
1128;SDS011;553;51.038;7.216;2023-03-01T10:42:33;11.40;;;7.43;;
1128;SDS011;553;51.038;7.216;2023-03-01T10:45:23;11.33;;;7.67;;
1128;SDS011;553;51.038;7.216;2023-03-01T10:48:02;12.83;;;8.13;;
1128;SDS011;553;51.038;7.216;2023-03-01T10:50:31;12.40;;;8.17;;
1128;SDS011;553;51.038;7.216;2023-03-01T10:53:02;13.77;;;8.00;;
1128;SDS011;553;51.038;7.216;2023-03-01T10:55:39;10.90;;;7.37;;
1128;SDS011;553;51.038;7.216;2023-03-01T10:58:17;12.53;;;8.23;;
1128;SDS011;553;51.038;7.216;2023-03-01T11:00:46;10.80;;;7.90;;
1128;SDS011;553;51.038;7.216;2023-03-01T11:03:25;11.47;;;8.33;;
1128;SDS011;553;51.038;7.216;2023-03-01T11:05:59;10.70;;;7.87;;
1128;SDS011;553;51.038;7.216;2023-03-01T11:08:47;13.57;;;7.73;;
1128;SDS011;553;51.038;7.216;2023-03-01T11:11:20;12.00;;;7.50;;
1128;SDS011;553;51.038;7.216;2023-03-01T11:13:59;10.97;;;7.77;;
1128;SDS011;553;51.038;7.216;2023-03-01T11:16:28;11.80;;;7.53;;
1128;SDS011;553;51.038;7.216;2023-03-01T11:21:47;11.00;;;7.73;;
1128;SDS011;553;51.038;7.216;2023-03-01T11:24:17;10.40;;;7.97;;
1128;SDS011;553;51.038;7.216;2023-03-01T11:26:45;10.80;;;8.33;;
1128;SDS011;553;51.038;7.216;2023-03-01T11:29:21;12.13;;;8.07;;
1128;SDS011;553;51.038;7.216;2023-03-01T11:32:14;12.23;;;7.70;;
1128;SDS011;553;51.038;7.216;2023-03-01T11:37:21;11.17;;;7.70;;
1128;SDS011;553;51.038;7.216;2023-03-01T12:02:36;10.30;;;6.67;;
1128;SDS011;553;51.038;7.216;2023-03-01T12:08:21;10.87;;;7.87;;
1128;SDS011;553;51.038;7.216;2023-03-01T12:16:57;10.63;;;7.37;;
1128;SDS011;553;51.038;7.216;2023-03-01T12:19:49;10.00;;;7.17;;
1128;SDS011;553;51.038;7.216;2023-03-01T12:22:28;14.20;;;8.20;;
1128;SDS011;553;51.038;7.216;2023-03-01T12:33:15;12.47;;;8.60;;
1128;SDS011;553;51.038;7.216;2023-03-01T12:35:54;12.37;;;8.37;;
1128;SDS011;553;51.038;7.216;2023-03-01T12:39:08;13.10;;;8.93;;
1128;SDS011;553;51.038;7.216;2023-03-01T12:42:00;11.50;;;7.90;;
1128;SDS011;553;51.038;7.216;2023-03-01T12:47:55;16.07;;;9.40;;
1128;SDS011;553;51.038;7.216;2023-03-01T12:50:47;12.97;;;8.30;;
1128;SDS011;553;51.038;7.216;2023-03-01T12:55:52;13.70;;;8.23;;
1128;SDS011;553;51.038;7.216;2023-03-01T13:15:32;11.10;;;8.37;;
1128;SDS011;553;51.038;7.216;2023-03-01T13:18:00;12.37;;;8.00;;
1128;SDS011;553;51.038;7.216;2023-03-01T13:20:32;11.97;;;8.10;;
1128;SDS011;553;51.038;7.216;2023-03-01T13:31:05;8.30;;;6.53;;
1128;SDS011;553;51.038;7.216;2023-03-01T13:33:56;15.47;;;8.40;;
1128;SDS011;553;51.038;7.216;2023-03-01T13:46:49;10.50;;;7.80;;
1128;SDS011;553;51.038;7.216;2023-03-01T13:49:21;11.97;;;7.40;;
1128;SDS011;553;51.038;7.216;2023-03-01T13:51:50;9.60;;;6.73;;
1128;SDS011;553;51.038;7.216;2023-03-01T13:54:22;12.40;;;8.57;;
1128;SDS011;553;51.038;7.216;2023-03-01T13:56:54;14.53;;;7.80;;
1128;SDS011;553;51.038;7.216;2023-03-01T13:59:22;12.83;;;7.97;;
1128;SDS011;553;51.038;7.216;2023-03-01T14:01:57;10.23;;;6.97;;
1128;SDS011;553;51.038;7.216;2023-03-01T14:07:16;11.50;;;8.67;;
1128;SDS011;553;51.038;7.216;2023-03-01T14:09:51;12.70;;;8.67;;
1128;SDS011;553;51.038;7.216;2023-03-01T14:20:23;14.13;;;8.77;;
1128;SDS011;553;51.038;7.216;2023-03-01T14:22:54;14.80;;;8.93;;
1128;SDS011;553;51.038;7.216;2023-03-01T14:25:30;11.03;;;7.40;;
1128;SDS011;553;51.038;7.216;2023-03-01T14:28:01;15.13;;;8.87;;
1128;SDS011;553;51.038;7.216;2023-03-01T14:30:50;11.13;;;7.13;;
1128;SDS011;553;51.038;7.216;2023-03-01T14:33:20;12.33;;;8.00;;
1128;SDS011;553;51.038;7.216;2023-03-01T14:36:04;12.60;;;8.83;;
1128;SDS011;553;51.038;7.216;2023-03-01T14:41:18;13.47;;;8.50;;
1128;SDS011;553;51.038;7.216;2023-03-01T14:43:47;13.97;;;8.80;;
1128;SDS011;553;51.038;7.216;2023-03-01T14:46:20;13.40;;;8.33;;
1128;SDS011;553;51.038;7.216;2023-03-01T14:49:01;11.90;;;8.83;;
1128;SDS011;553;51.038;7.216;2023-03-01T14:51:39;12.67;;;7.90;;
1128;SDS011;553;51.038;7.216;2023-03-01T14:54:18;13.87;;;8.83;;
1128;SDS011;553;51.038;7.216;2023-03-01T14:56:57;11.67;;;8.23;;
1128;SDS011;553;51.038;7.216;2023-03-01T14:59:25;11.27;;;8.30;;
1128;SDS011;553;51.038;7.216;2023-03-01T15:01:53;8.10;;;6.30;;
1128;SDS011;553;51.038;7.216;2023-03-01T15:04:22;11.27;;;7.10;;
1128;SDS011;553;51.038;7.216;2023-03-01T15:06:51;17.90;;;10.07;;
1128;SDS011;553;51.038;7.216;2023-03-01T15:09:21;17.20;;;10.20;;
1128;SDS011;553;51.038;7.216;2023-03-01T15:11:49;14.43;;;8.83;;
1128;SDS011;553;51.038;7.216;2023-03-01T15:17:32;17.63;;;9.73;;
1128;SDS011;553;51.038;7.216;2023-03-01T15:20:02;10.33;;;7.43;;
1128;SDS011;553;51.038;7.216;2023-03-01T15:22:45;12.97;;;8.30;;
1128;SDS011;553;51.038;7.216;2023-03-01T15:25:16;13.80;;;8.33;;
1128;SDS011;553;51.038;7.216;2023-03-01T15:27:47;9.30;;;6.87;;
1128;SDS011;553;51.038;7.216;2023-03-01T15:30:17;11.73;;;8.40;;
1128;SDS011;553;51.038;7.216;2023-03-01T15:33:15;10.07;;;6.20;;
1128;SDS011;553;51.038;7.216;2023-03-01T15:35:49;15.90;;;6.77;;
1128;SDS011;553;51.038;7.216;2023-03-01T15:38:24;9.23;;;6.40;;
1128;SDS011;553;51.038;7.216;2023-03-01T15:41:33;10.80;;;8.00;;
1128;SDS011;553;51.038;7.216;2023-03-01T15:47:25;11.23;;;7.07;;
1128;SDS011;553;51.038;7.216;2023-03-01T15:49:53;12.93;;;6.93;;
1128;SDS011;553;51.038;7.216;2023-03-01T15:55:06;14.53;;;7.80;;
1128;SDS011;553;51.038;7.216;2023-03-01T15:57:41;11.30;;;6.80;;
1128;SDS011;553;51.038;7.216;2023-03-01T16:00:12;11.30;;;6.80;;
1128;SDS011;553;51.038;7.216;2023-03-01T16:02:40;12.63;;;7.50;;
1128;SDS011;553;51.038;7.216;2023-03-01T16:07:52;15.60;;;7.20;;
1128;SDS011;553;51.038;7.216;2023-03-01T16:10:20;8.50;;;6.17;;
1128;SDS011;553;51.038;7.216;2023-03-01T16:12:47;17.40;;;11.03;;
1128;SDS011;553;51.038;7.216;2023-03-01T16:18:18;10.70;;;7.07;;
1128;SDS011;553;51.038;7.216;2023-03-01T16:20:56;15.23;;;8.10;;
1128;SDS011;553;51.038;7.216;2023-03-01T16:23:22;15.20;;;7.20;;
1128;SDS011;553;51.038;7.216;2023-03-01T16:25:51;15.70;;;8.23;;
1128;SDS011;553;51.038;7.216;2023-03-01T16:28:18;9.63;;;6.40;;
1128;SDS011;553;51.038;7.216;2023-03-01T16:30:45;9.43;;;6.63;;
1128;SDS011;553;51.038;7.216;2023-03-01T16:33:14;8.07;;;5.47;;
1128;SDS011;553;51.038;7.216;2023-03-01T16:36:00;9.73;;;6.30;;
1128;SDS011;553;51.038;7.216;2023-03-01T16:38:33;10.23;;;6.30;;
1128;SDS011;553;51.038;7.216;2023-03-01T16:41:01;9.20;;;6.90;;
1128;SDS011;553;51.038;7.216;2023-03-01T16:43:28;12.53;;;6.30;;
1128;SDS011;553;51.038;7.216;2023-03-01T16:45:56;9.90;;;6.20;;
1128;SDS011;553;51.038;7.216;2023-03-01T16:48:23;10.10;;;6.27;;
1128;SDS011;553;51.038;7.216;2023-03-01T16:50:55;9.30;;;5.23;;
1128;SDS011;553;51.038;7.216;2023-03-01T16:53:22;11.10;;;6.07;;
1128;SDS011;553;51.038;7.216;2023-03-01T16:55:53;11.77;;;6.70;;
1128;SDS011;553;51.038;7.216;2023-03-01T16:58:20;7.70;;;4.93;;
1128;SDS011;553;51.038;7.216;2023-03-01T17:00:53;13.93;;;6.80;;
1128;SDS011;553;51.038;7.216;2023-03-01T17:03:21;9.43;;;6.13;;
1128;SDS011;553;51.038;7.216;2023-03-01T17:05:49;8.47;;;6.30;;
1128;SDS011;553;51.038;7.216;2023-03-01T17:08:16;9.07;;;6.30;;
1128;SDS011;553;51.038;7.216;2023-03-01T17:10:44;8.23;;;5.63;;
1128;SDS011;553;51.038;7.216;2023-03-01T17:13:11;12.20;;;6.03;;
1128;SDS011;553;51.038;7.216;2023-03-01T17:15:38;13.87;;;5.23;;
1128;SDS011;553;51.038;7.216;2023-03-01T17:18:08;9.20;;;6.47;;
1128;SDS011;553;51.038;7.216;2023-03-01T17:20:35;10.53;;;6.13;;
1128;SDS011;553;51.038;7.216;2023-03-01T17:23:02;10.80;;;5.53;;
1128;SDS011;553;51.038;7.216;2023-03-01T17:25:29;9.17;;;5.57;;
1128;SDS011;553;51.038;7.216;2023-03-01T17:27:56;8.47;;;5.07;;
1128;SDS011;553;51.038;7.216;2023-03-01T17:30:24;9.57;;;5.73;;
1128;SDS011;553;51.038;7.216;2023-03-01T17:32:50;10.93;;;6.40;;
1128;SDS011;553;51.038;7.216;2023-03-01T17:35:20;8.57;;;6.43;;
1128;SDS011;553;51.038;7.216;2023-03-01T17:37:47;9.47;;;6.37;;
1128;SDS011;553;51.038;7.216;2023-03-01T17:40:14;13.00;;;6.30;;
1128;SDS011;553;51.038;7.216;2023-03-01T17:42:41;8.70;;;6.20;;
1128;SDS011;553;51.038;7.216;2023-03-01T17:45:08;10.23;;;6.17;;
1128;SDS011;553;51.038;7.216;2023-03-01T17:47:35;8.70;;;6.40;;
1128;SDS011;553;51.038;7.216;2023-03-01T17:50:02;10.70;;;6.53;;
1128;SDS011;553;51.038;7.216;2023-03-01T17:52:30;16.50;;;7.30;;
1128;SDS011;553;51.038;7.216;2023-03-01T17:54:57;10.13;;;7.03;;